createdAt,value
2023-04-03T20:04:03.441Z,15.40
2023-04-03T20:06:30.985Z,2.70
2023-04-03T20:08:58.198Z,2.50
2023-04-03T20:11:26.586Z,2.50
2023-04-03T20:16:25.994Z,2.50
2023-04-03T20:18:57.015Z,2.40
2023-04-03T20:21:34.385Z,2.30
2023-04-03T20:24:02.610Z,2.20
2023-04-03T20:26:31.922Z,2.20
2023-04-03T20:29:02.745Z,2.30
2023-04-03T20:31:31.082Z,2.20
2023-04-03T20:33:57.955Z,2.20
2023-04-03T20:36:26.585Z,2.10
2023-04-03T20:38:55.727Z,2.10
2023-04-03T20:41:23.125Z,2.00
2023-04-03T20:43:49.948Z,2.00
2023-04-03T20:46:19.918Z,2.00
2023-04-03T20:48:48.125Z,1.90
2023-04-03T20:51:18.392Z,1.90
2023-04-03T20:53:47.905Z,1.70
2023-04-03T20:56:15.927Z,1.60
2023-04-03T20:58:43.812Z,1.50
2023-04-03T21:01:22.808Z,1.50
2023-04-03T21:03:52.556Z,1.60
2023-04-03T21:06:57.090Z,1.60
2023-04-03T21:10:01.997Z,1.50
2023-04-03T21:13:06.468Z,1.50
2023-04-03T21:15:48.173Z,1.40
2023-04-03T21:18:37.838Z,1.40
2023-04-03T21:21:05.567Z,1.40
2023-04-03T21:23:35.666Z,1.30
2023-04-03T21:26:03.268Z,1.30
2023-04-03T21:28:30.599Z,1.10
2023-04-03T21:30:57.345Z,1.10
2023-04-03T21:33:28.869Z,1.10
2023-04-03T21:35:58.646Z,1.10
2023-04-03T21:38:28.383Z,1.10
2023-04-03T21:40:58.676Z,1.10
2023-04-03T21:43:25.923Z,1.00
2023-04-03T21:45:57.802Z,1.00
2023-04-03T21:48:25.402Z,0.90
2023-04-03T21:50:53.695Z,0.90
2023-04-03T21:53:23.792Z,0.80
2023-04-03T21:56:05.145Z,0.70
2023-04-03T21:58:32.915Z,0.70
2023-04-03T22:01:13.904Z,0.70
2023-04-03T22:03:41.996Z,0.70
2023-04-03T22:06:09.710Z,0.60
2023-04-03T22:08:36.995Z,0.50
2023-04-03T22:11:11.272Z,0.40
2023-04-03T22:13:38.298Z,0.40
2023-04-03T22:16:05.968Z,0.30
2023-04-03T22:18:33.381Z,0.30
2023-04-03T22:21:00.481Z,0.30
2023-04-03T22:23:27.436Z,0.20
2023-04-03T22:26:04.694Z,0.10
2023-04-03T22:28:33.316Z,0.10
2023-04-03T22:31:05.144Z,0.00
2023-04-03T22:33:34.275Z,0.00
2023-04-03T22:36:01.236Z,-0.10
2023-04-03T22:38:28.224Z,0.00
2023-04-03T22:41:03.714Z,-0.10
2023-04-03T22:43:32.712Z,-0.10
2023-04-03T22:46:03.411Z,-0.10
2023-04-03T22:48:31.065Z,-0.10
2023-04-03T22:50:59.053Z,-0.20
2023-04-03T22:53:25.815Z,-0.20
2023-04-03T22:55:57.159Z,-0.30
2023-04-03T22:58:26.551Z,-0.20
2023-04-03T23:01:08.146Z,-0.30
2023-04-03T23:03:44.089Z,-0.30
2023-04-03T23:06:11.198Z,-0.20
2023-04-03T23:08:38.967Z,-0.30
2023-04-03T23:11:07.319Z,-0.40
2023-04-03T23:16:18.694Z,-0.40
2023-04-03T23:18:45.509Z,-0.40
2023-04-03T23:21:12.357Z,-0.40
2023-04-03T23:23:39.083Z,-0.40
2023-04-03T23:26:06.075Z,-0.50
2023-04-03T23:28:35.448Z,-0.50
2023-04-03T23:31:05.506Z,-0.60
2023-04-03T23:33:35.462Z,-0.50
2023-04-03T23:36:07.998Z,-0.50
2023-04-03T23:38:35.565Z,-0.60
2023-04-03T23:41:05.469Z,-0.60
2023-04-03T23:43:32.358Z,-0.60
2023-04-03T23:46:02.719Z,-0.60
2023-04-03T23:48:29.652Z,-0.60
2023-04-03T23:50:56.805Z,-0.60
2023-04-03T23:53:25.608Z,-0.60
2023-04-03T23:55:54.570Z,-0.70
2023-04-03T23:58:21.294Z,-0.70
